| time (UTC) | temp F | wind direction | speed MPH | gust MPH | rain 1hr in | rain 24hr in | rain mn in | humidity % | barometer mb |
| 20260508141603 | 68 | 261 | 0.0 | 4.0 | 0.00 | 0.00 | 0.00 | 53 | 1012.8 |
| 20260508140047 | 63 | 296 | 0.0 | 3.0 | 0.00 | 0.00 | 0.00 | 60 | 1012.8 |
| 20260508134544 | 62 | 108 | 0.0 | 3.0 | 0.00 | 0.00 | 0.00 | 63 | 1012.7 |
| 20260508133040 | 60 | 76 | 0.0 | 2.0 | 0.00 | 0.00 | 0.00 | 63 | 1012.7 |
| 20260508131536 | 59 | 100 | 0.0 | 2.0 | 0.00 | 0.00 | 0.00 | 64 | 1012.7 |
| 20260508130038 | 58 | 105 | 0.0 | 3.0 | 0.00 | 0.00 | 0.00 | 65 | 1012.6 |
| 20260508124536 | 58 | 101 | 0.0 | 2.0 | 0.00 | 0.00 | 0.00 | 64 | 1012.6 |
| 20260508123032 | 58 | 167 | 0.0 | 3.0 | 0.00 | 0.00 | 0.00 | 63 | 1012.4 |
| 20260508121531 | 57 | 124 | 0.0 | 2.0 | 0.00 | 0.00 | 0.00 | 64 | 1012.4 |
| 20260508120030 | 56 | 115 | 0.0 | 1.0 | 0.00 | 0.00 | 0.00 | 63 | 1012.6 |
| 20260508114531 | 54 | 118 | 0.0 | 1.0 | 0.00 | 0.00 | 0.00 | 67 | 1012.6 |
| 20260508113028 | 52 | 116 | 0.0 | 1.0 | 0.00 | 0.00 | 0.00 | 68 | 1012.4 |
| 20260508111527 | 52 | 96 | 0.0 | 1.0 | 0.00 | 0.00 | 0.00 | 68 | 1012.4 |
| 20260508110030 | 52 | 161 | 0.0 | 1.0 | 0.00 | 0.00 | 0.00 | 67 | 1012.4 |
| 20260508104529 | 52 | 123 | 0.0 | 2.0 | 0.00 | 0.00 | 0.00 | 66 | 1012.4 |
| 20260508103033 | 52 | 151 | 0.0 | 2.0 | 0.00 | 0.00 | 0.00 | 66 | 1012.4 |
| 20260508101523 | 52 | 131 | 0.0 | 1.0 | 0.00 | 0.00 | 0.00 | 67 | 1012.4 |
| 20260508100022 | 52 | 50 | 0.0 | 2.0 | 0.00 | 0.00 | 0.00 | 67 | 1012.4 |
| 20260508094523 | 52 | 56 | 0.0 | 3.0 | 0.00 | 0.00 | 0.00 | 68 | 1012.4 |
| 20260508093033 | 51 | 108 | 0.0 | 1.0 | 0.00 | 0.00 | 0.00 | 68 | 1012.6 |
| 20260508091530 | 51 | 112 | 0.0 | 1.0 | 0.00 | 0.00 | 0.00 | 68 | 1012.7 |
| 20260508090017 | 52 | 145 | 0.0 | 0.0 | 0.00 | 0.00 | 0.00 | 67 | 1012.6 |
| 20260508084517 | 52 | 125 | 0.0 | 1.0 | 0.00 | 0.00 | 0.00 | 65 | 1012.5 |
| 20260508083013 | 53 | 131 | 0.0 | 1.0 | 0.00 | 0.00 | 0.00 | 64 | 1012.5 |
| 20260508081513 | 53 | 87 | 0.0 | 1.0 | 0.00 | 0.00 | 0.00 | 63 | 1012.5 |
| 20260508080011 | 53 | 142 | 0.0 | 1.0 | 0.00 | 0.00 | 0.00 | 63 | 1012.7 |
| 20260508074511 | 54 | 153 | 0.0 | 1.0 | 0.00 | 0.00 | 0.00 | 62 | 1012.7 |
| 20260508073008 | 54 | 172 | 0.0 | 0.0 | 0.00 | 0.00 | 0.00 | 61 | 1012.7 |
| 20260508071510 | 55 | 105 | 0.0 | 1.0 | 0.00 | 0.00 | 0.00 | 60 | 1012.9 |
| 20260508070002 | 55 | 102 | 0.0 | 1.0 | 0.00 | 0.00 | 0.00 | 60 | 1013.0 |
| 20260508064559 | 55 | 101 | 0.0 | 2.0 | 0.00 | 0.00 | 0.00 | 59 | 1013.2 |
| 20260508063104 | 56 | 118 | 0.0 | 1.0 | 0.00 | 0.00 | 0.00 | 58 | 1013.4 |
| 20260508061553 | 56 | 124 | 0.0 | 1.0 | 0.00 | 0.00 | 0.00 | 56 | 1013.6 |
| 20260508060050 | 57 | 110 | 0.0 | 1.0 | 0.00 | 0.00 | 0.00 | 55 | 1013.7 |
| 20260508054548 | 58 | 144 | 0.0 | 2.0 | 0.00 | 0.00 | 0.00 | 53 | 1013.8 |
| 20260508053053 | 58 | 131 | 0.0 | 3.0 | 0.00 | 0.00 | 0.00 | 52 | 1013.9 |
| 20260508051545 | 58 | 89 | 0.0 | 1.0 | 0.00 | 0.00 | 0.00 | 51 | 1013.7 |
| 20260508050044 | 58 | 209 | 0.0 | 2.0 | 0.00 | 0.00 | 0.00 | 51 | 1013.7 |
| 20260508044543 | 59 | 248 | 0.0 | 2.0 | 0.00 | 0.00 | 0.00 | 51 | 1013.8 |
| 20260508043055 | 59 | 146 | 0.0 | 2.0 | 0.00 | 0.00 | 0.00 | 51 | 1013.7 |
| 20260508041549 | 58 | 77 | 0.0 | 1.0 | 0.00 | 0.00 | 0.00 | 51 | 1013.8 |
| 20260508040042 | 58 | 146 | 0.0 | 2.0 | 0.00 | 0.00 | 0.00 | 51 | 1013.8 |
| 20260508034541 | 58 | 260 | 0.0 | 1.0 | 0.00 | 0.00 | 0.00 | 51 | 1013.6 |
| 20260508033040 | 59 | 151 | 0.0 | 2.0 | 0.00 | 0.00 | 0.00 | 50 | 1013.9 |
| 20260508031539 | 59 | 138 | 0.0 | 1.0 | 0.00 | 0.00 | 0.00 | 50 | 1014.0 |
| 20260508030042 | 59 | 122 | 0.0 | 1.0 | 0.00 | 0.00 | 0.00 | 50 | 1014.0 |
| 20260508024541 | 58 | 109 | 0.0 | 0.0 | 0.00 | 0.00 | 0.00 | 51 | 1014.0 |
| 20260508023037 | 59 | 107 | 0.0 | 0.0 | 0.00 | 0.00 | 0.00 | 51 | 1014.0 |
| 20260508021541 | 59 | 106 | 0.0 | 1.0 | 0.00 | 0.00 | 0.00 | 51 | 1013.9 |
| 20260508020045 | 59 | 252 | 0.0 | 0.0 | 0.00 | 0.00 | 0.00 | 50 | 1013.7 |
| 20260508014539 | 60 | 252 | 0.0 | 0.0 | 0.00 | 0.00 | 0.00 | 49 | 1013.5 |
| 20260508013050 | 60 | 252 | 0.0 | 0.0 | 0.00 | 0.00 | 0.00 | 47 | 1013.4 |
| 20260508011539 | 61 | 252 | 0.0 | 0.0 | 0.00 | 0.00 | 0.00 | 44 | 1013.3 |
| 20260508010036 | 63 | 252 | 0.0 | 0.0 | 0.00 | 0.00 | 0.00 | 41 | 1013.1 |
| 20260508004534 | 64 | 252 | 0.0 | 0.0 | 0.00 | 0.00 | 0.00 | 40 | 1013.0 |
| 20260508003034 | 65 | 252 | 0.0 | 1.0 | 0.00 | 0.00 | 0.00 | 39 | 1012.9 |
| 20260508001558 | 66 | 224 | 0.0 | 4.0 | 0.00 | 0.00 | 0.00 | 37 | 1012.9 |
| 20260508000032 | 67 | 137 | 0.0 | 2.0 | 0.00 | 0.00 | 0.00 | 37 | 1012.8 |
| 20260507234535 | 67 | 324 | 0.0 | 2.0 | 0.00 | 0.00 | 0.00 | 37 | 1012.8 |
| 20260507233031 | 67 | 257 | 0.0 | 5.0 | 0.00 | 0.00 | 0.00 | 36 | 1012.9 |
| 20260507231535 | 68 | 220 | 1.0 | 4.0 | 0.00 | 0.00 | 0.00 | 36 | 1013.0 |
| 20260507230029 | 68 | 112 | 0.0 | 4.0 | 0.00 | 0.00 | 0.00 | 35 | 1012.9 |
| 20260507224540 | 68 | 219 | 1.0 | 5.0 | 0.00 | 0.00 | 0.00 | 35 | 1013.2 |
| 20260507223027 | 68 | 27 | 0.0 | 3.0 | 0.00 | 0.00 | 0.00 | 34 | 1013.3 |
| 20260507221525 | 69 | 293 | 0.0 | 6.0 | 0.00 | 0.00 | 0.00 | 35 | 1013.5 |
| 20260507220037 | 69 | 246 | 0.0 | 4.0 | 0.00 | 0.00 | 0.00 | 35 | 1013.4 |
| 20260507214533 | 69 | 278 | 1.0 | 8.0 | 0.00 | 0.00 | 0.00 | 34 | 1013.5 |
| 20260507213022 | 69 | 176 | 0.0 | 4.0 | 0.00 | 0.00 | 0.00 | 34 | 1013.6 |
| 20260507211521 | 69 | 117 | 1.0 | 7.0 | 0.00 | 0.00 | 0.00 | 34 | 1013.7 |
| 20260507210019 | 69 | 243 | 0.0 | 5.0 | 0.00 | 0.00 | 0.00 | 34 | 1014.0 |
| 20260507204518 | 70 | 245 | 1.0 | 6.0 | 0.00 | 0.00 | 0.00 | 35 | 1014.2 |
| 20260507203015 | 69 | 250 | 0.0 | 6.0 | 0.00 | 0.00 | 0.00 | 33 | 1014.5 |
| 20260507201514 | 69 | 292 | 0.0 | 4.0 | 0.00 | 0.00 | 0.00 | 33 | 1014.9 |
| 20260507200016 | 69 | 214 | 1.0 | 8.0 | 0.00 | 0.00 | 0.00 | 33 | 1014.9 |
| 20260507194512 | 69 | 296 | 1.0 | 9.0 | 0.00 | 0.00 | 0.00 | 31 | 1015.0 |
| 20260507193010 | 69 | 281 | 1.0 | 4.0 | 0.00 | 0.00 | 0.00 | 33 | 1015.1 |
| 20260507191507 | 69 | 189 | 1.0 | 4.0 | 0.00 | 0.00 | 0.00 | 34 | 1015.4 |
| 20260507190007 | 69 | 295 | 0.0 | 8.0 | 0.00 | 0.00 | 0.00 | 33 | 1015.5 |
| 20260507184506 | 69 | 112 | 1.0 | 10.0 | 0.00 | 0.00 | 0.00 | 37 | 1015.6 |
| 20260507183004 | 68 | 299 | 4.0 | 8.0 | 0.00 | 0.00 | 0.00 | 32 | 1015.6 |
| 20260507181606 | 67 | 212 | 0.0 | 10.0 | 0.00 | 0.00 | 0.00 | 35 | 1015.9 |
| 20260507180058 | 68 | 346 | 0.0 | 3.0 | 0.00 | 0.00 | 0.00 | 40 | 1016.1 |
| 20260507174609 | 67 | 300 | 3.0 | 6.0 | 0.00 | 0.00 | 0.00 | 35 | 1016.3 |
| 20260507173056 | 67 | 327 | 0.0 | 8.0 | 0.00 | 0.00 | 0.00 | 35 | 1016.4 |
| 20260507171602 | 68 | 276 | 0.0 | 4.0 | 0.00 | 0.00 | 0.00 | 38 | 1016.5 |
| 20260507170052 | 66 | 239 | 0.0 | 6.0 | 0.00 | 0.00 | 0.00 | 39 | 1017.0 |
| 20260507164548 | 66 | 261 | 0.0 | 4.0 | 0.00 | 0.00 | 0.00 | 37 | 1017.3 |
| 20260507163046 | 66 | 42 | 0.0 | 4.0 | 0.00 | 0.00 | 0.00 | 36 | 1017.3 |
| 20260507161545 | 65 | 41 | 0.0 | 3.0 | 0.00 | 0.00 | 0.00 | 40 | 1017.6 |
| 20260507160044 | 65 | 91 | 0.0 | 4.0 | 0.00 | 0.00 | 0.00 | 36 | 1017.6 |
| 20260507154547 | 64 | 243 | 0.0 | 4.0 | 0.00 | 0.00 | 0.00 | 35 | 1017.9 |
| 20260507153048 | 64 | 167 | 1.0 | 4.0 | 0.00 | 0.00 | 0.00 | 38 | 1017.7 |
| 20260507151538 | 63 | 201 | 0.0 | 4.0 | 0.00 | 0.00 | 0.00 | 40 | 1017.9 |
| 20260507150040 | 63 | 115 | 0.0 | 3.0 | 0.00 | 0.00 | 0.00 | 40 | 1018.1 |
| 20260507144535 | 63 | 339 | 0.0 | 5.0 | 0.00 | 0.00 | 0.00 | 41 | 1018.3 |
| 20260507143034 | 62 | 125 | 0.0 | 3.0 | 0.00 | 0.00 | 0.00 | 43 | 1018.3 |